Yulin, China
Current Conditions -  °F | °C
As of 10:00 AM on Friday 19 Dec 2014 (Local Time) from ZBYN Reporting Station
Clear Clear  
Wind Chill: 21°   Ceiling: Unl
Heat Index: 30°   Visibility: 6mi
Dew Point:   Wind: 11mph
Humidity: 27%   Direction: 290°WNW
Pressure: 30.27"   Gusts: NA
Location:  38.23°N, 109.7°E
Report Text: ZBYN 190200Z 29005MPS CAVOK M01/M18 Q1025 NOSIG
Loading
Personal Weather Stations






























Interactive Weather Map New forecast layout! Learn more

10-Day Weather Forecast

Advertisements
Track Severe Weather on mobile